OMSJ/SHJ METAR and TAF weather

Enter ICAO airport designator
Station Type Date Time Source
OMSJ METAR 2022/06/30 02:00 UTC NOAA

OMSJ 300200Z VRB02KT 7000 NSC 32/24 Q0994 NOSIG


Station Type Date Time Source
OMSJ Decoded METAR 2022/06/30 02:00 UTC NOAA

Sharjah International Airport, United Arab Emirates (OMSJ) 25-20N 055-31E 33M
Jun 29, 2022 - 10:00 PM EDT / 2022.06.30 0200 UTC
Wind: Variable at 2 MPH (2 KT):0
Visibility: 4 mile(s):0
Temperature: 89 F (32 C)
Heat index: 98.4 F (36.9 C):1
Dew Point: 75 F (24 C)
Relative Humidity: 62%
Pressure (altimeter): 29.35 in. Hg (0994 hPa)
ob: OMSJ 300200Z VRB02KT 7000 NSC 32/24 Q0994 NOSIG
cycle: 2

Station Type Date Time Source
OMSJ TAF 2022/06/29 18:02 UTC NOAA

TAF OMSJ 291700Z 2918/0100 18005KT 7000 NSC PROB30 3001/3004 4000 DU
BECMG 3004/3006 32010KT
BECMG 3015/3017 VRB02KT

Example: see airport list